Time;durP1;ratioP1;P1;durP2;ratioP2;P2;SDS_P1;SDS_P2;PMS_P1;PMS_P2;Temp;Humidity;BMP_temperature;BMP_pressure;BME280_temperature;BME280_humidity;BME280_pressure;Samples;Min_cycle;Max_cycle;Signal;HPM_P1;HPM_P2
2023/01/11 00:00:13;;;;;;;8.98;2.80;;;;;;;-5.15;74.37;101526.13;1738320;82;21167;-54
2023/01/11 00:02:44;;;;;;;20.97;3.77;;;;;;;-5.15;74.63;101524.31;1737513;82;21547;-55
2023/01/11 00:05:14;;;;;;;8.13;3.20;;;;;;;-5.16;74.72;101526.59;1737527;82;21303;-54
2023/01/11 00:07:44;;;;;;;22.10;3.95;;;;;;;-5.17;74.92;101537.34;1738421;82;21236;-54
2023/01/11 00:10:13;;;;;;;16.17;4.00;;;;;;;-5.19;74.94;101524.06;1737868;82;21151;-54
2023/01/11 00:12:44;;;;;;;12.43;3.52;;;;;;;-5.19;74.94;101524.06;1737820;82;21140;-53
2023/01/11 00:15:13;;;;;;;13.05;3.20;;;;;;;-5.18;75.06;101529.80;1737383;82;21175;-54
2023/01/11 00:17:42;;;;;;;8.50;3.12;;;;;;;-5.23;74.88;101535.79;1737577;82;21135;-53
2023/01/11 00:20:14;;;;;;;16.45;3.50;;;;;;;-5.30;75.11;101538.34;1737093;82;21132;-53
2023/01/11 00:22:43;;;;;;;17.15;3.55;;;;;;;-5.31;75.20;101531.27;1737795;82;21136;-52
2023/01/11 00:25:15;;;;;;;9.08;2.72;;;;;;;-5.30;75.24;101527.66;1708458;83;21156;-53
2023/01/11 00:27:48;;;;;;;12.68;3.50;;;;;;;-5.33;74.71;101522.45;1737630;82;21564;-54
2023/01/11 00:30:18;;;;;;;13.03;3.60;;;;;;;-5.38;74.21;101527.59;1737710;82;21160;-54
2023/01/11 00:32:47;;;;;;;11.57;3.55;;;;;;;-5.40;74.23;101530.34;1739509;82;21151;-54
2023/01/11 00:35:17;;;;;;;12.03;3.35;;;;;;;-5.39;74.04;101536.08;1708527;82;21259;-53
2023/01/11 00:37:46;;;;;;;15.40;3.42;;;;;;;-5.39;73.72;101534.75;1738165;82;21294;-54
2023/01/11 00:40:17;;;;;;;11.88;3.60;;;;;;;-5.38;73.53;101531.14;1738274;82;21215;-53
2023/01/11 00:48:22;;;;;;;14.90;3.60;;;;;;;-5.37;72.22;101523.52;1737687;82;21112;-54
2023/01/11 00:50:54;;;;;;;13.38;3.40;;;;;;;-5.41;71.58;101535.28;1739545;82;21609;-54
2023/01/11 00:53:23;;;;;;;10.95;3.50;;;;;;;-5.43;70.99;101533.14;1639594;87;21159;-54
2023/01/11 00:55:53;;;;;;;10.53;3.27;;;;;;;-5.44;70.41;101538.09;1647657;87;21265;-53
2023/01/11 00:58:22;;;;;;;12.90;4.15;;;;;;;-5.41;70.42;101539.28;1647953;87;21244;-53
2023/01/11 01:00:51;;;;;;;12.00;3.52;;;;;;;-5.38;70.28;101536.95;1646985;87;21563;-55
2023/01/11 01:03:20;;;;;;;12.60;3.25;;;;;;;-5.35;69.72;101539.48;1646905;87;21176;-53
2023/01/11 01:05:54;;;;;;;17.60;3.30;;;;;;;-5.35;69.57;101543.02;1646720;87;21186;-55
2023/01/11 01:08:23;;;;;;;11.93;3.15;;;;;;;-5.30;69.59;101550.83;1646713;87;21626;-55
2023/01/11 01:10:53;;;;;;;18.40;3.75;;;;;;;-5.28;69.35;101559.17;1668122;82;21574;-57
2023/01/11 01:16:10;;;;;;;9.18;3.30;;;;;;;-5.23;68.92;101555.83;1735780;82;21176;-54
2023/01/11 01:18:40;;;;;;;15.05;3.20;;;;;;;-5.21;68.81;101553.95;1750430;82;21600;-55
2023/01/11 01:21:10;;;;;;;26.60;4.87;;;;;;;-5.19;68.65;101556.12;1755677;81;21170;-56
2023/01/11 01:23:39;;;;;;;12.70;3.72;;;;;;;-5.16;68.50;101553.78;1756289;82;21138;-55
2023/01/11 01:26:08;;;;;;;15.58;3.75;;;;;;;-5.13;68.26;101549.63;1756022;81;21635;-55
2023/01/11 01:28:38;;;;;;;15.55;3.70;;;;;;;-5.15;68.05;101544.83;1756332;82;21162;-55
2023/01/11 01:31:07;;;;;;;16.25;4.05;;;;;;;-5.15;68.11;101548.36;1756359;81;21562;-55
2023/01/11 01:33:36;;;;;;;16.30;3.80;;;;;;;-5.15;68.12;101547.03;1751835;81;21150;-55
2023/01/11 01:36:07;;;;;;;16.62;3.55;;;;;;;-5.13;68.17;101549.63;1728390;82;21142;-56
2023/01/11 01:38:35;;;;;;;13.00;4.00;;;;;;;-5.14;67.93;101550.56;1749669;81;21168;-55
2023/01/11 01:41:05;;;;;;;17.35;3.80;;;;;;;-5.12;68.05;101566.92;1752673;81;21558;-55
2023/01/11 01:43:56;;;;;;;12.75;3.60;;;;;;;-5.09;67.86;101567.26;1696899;83;21130;-56
2023/01/11 01:46:31;;;;;;;16.62;3.35;;;;;;;-5.13;67.46;101567.00;1738862;80;21155;-57
2023/01/11 01:49:10;;;;;;;11.18;3.17;;;;;;;-5.21;67.51;101569.98;1737594;82;21143;-56
2023/01/11 01:51:47;;;;;;;14.85;3.10;;;;;;;-5.26;67.19;101557.77;1739217;82;21186;-55
2023/01/11 01:54:22;;;;;;;10.50;3.08;;;;;;;-5.27;67.54;101573.39;1739172;82;21179;-56
2023/01/11 01:57:00;;;;;;;12.50;3.02;;;;;;;-5.26;67.47;101564.45;1739092;82;21100;-58
2023/01/11 01:59:29;;;;;;;10.90;4.53;;;;;;;-5.31;67.76;101559.31;1737969;82;21615;-55
2023/01/11 02:01:58;;;;;;;16.30;3.08;;;;;;;-5.31;67.95;101558.44;1737657;82;21111;-56
2023/01/11 02:04:36;;;;;;;10.48;3.27;;;;;;;-5.33;68.10;101566.52;1737968;82;21171;-56
2023/01/11 02:07:10;;;;;;;11.63;2.92;;;;;;;-5.39;68.21;101562.78;1738024;82;21238;-55
2023/01/11 02:09:55;;;;;;;9.00;3.47;;;;;;;-5.47;68.42;101555.11;1711054;82;21263;-55
2023/01/11 02:12:25;;;;;;;16.93;3.72;;;;;;;-5.54;68.91;101562.99;1734393;82;21637;-55
2023/01/11 02:14:54;;;;;;;10.38;3.27;;;;;;;-5.54;68.91;101562.99;1735582;82;21209;-55
2023/01/11 02:17:24;;;;;;;18.67;3.90;;;;;;;-5.54;69.29;101554.98;1739095;82;21179;-54
2023/01/11 02:20:05;;;;;;;8.40;3.15;;;;;;;-5.54;69.33;101564.33;1737244;82;21215;-54
2023/01/11 02:23:22;;;;;;;10.72;4.05;;;;;;;-5.54;69.33;101564.33;1721212;82;21096;-56
2023/01/11 02:26:30;;;;;;;15.78;3.47;;;;;;;-5.59;69.53;101569.00;1737338;82;21167;-56
2023/01/11 02:29:22;;;;;;;16.23;3.60;;;;;;;-5.61;69.67;101562.86;1738527;82;21410;-54
2023/01/11 02:32:08;;;;;;;10.48;3.02;;;;;;;-5.57;69.61;101564.46;1730177;82;21172;-55
2023/01/11 02:34:55;;;;;;;10.35;3.00;;;;;;;-5.56;69.56;101562.19;1737226;82;21575;-54
2023/01/11 02:38:07;;;;;;;7.10;2.23;;;;;;;-5.62;69.26;101562.92;1738443;82;21148;-55
2023/01/11 02:40:47;;;;;;;17.48;3.12;;;;;;;-5.75;69.06;101563.45;1737742;82;21081;-56
2023/01/11 02:46:41;;;;;;;9.08;3.22;;;;;;;-5.83;69.72;101570.91;1749977;81;21534;-55
2023/01/11 02:49:36;;;;;;;;;;;;;;;-5.80;70.18;101564.58;1755484;81;21217;-55
2023/01/11 02:52:13;;;;;;;13.15;3.37;;;;;;;-5.90;70.25;101556.56;1749661;81;20158;-55
2023/01/11 02:54:42;;;;;;;11.55;3.72;;;;;;;-5.92;70.53;101562.43;1722369;83;21167;-57
2023/01/11 02:57:11;;;;;;;13.88;3.72;;;;;;;-5.93;70.47;101563.36;1720004;82;21236;-56
2023/01/11 02:59:40;;;;;;;8.05;2.75;;;;;;;-5.92;70.53;101555.77;1718191;83;21597;-55
2023/01/11 03:02:10;;;;;;;15.25;2.90;;;;;;;-5.92;70.54;101553.09;1723527;83;21181;-54
2023/01/11 03:04:41;;;;;;;10.15;3.33;;;;;;;-5.95;70.38;101557.22;1638246;86;21142;-56
2023/01/11 03:07:48;;;;;;;18.62;4.35;;;;;;;-5.97;70.23;101559.09;1718286;83;21212;-56
2023/01/11 03:10:31;;;;;;;17.07;3.55;;;;;;;-6.02;69.83;101562.41;1709636;83;21164;-54
2023/01/11 03:13:43;;;;;;;10.43;2.80;;;;;;;-6.05;69.78;101562.54;1716102;83;21195;-54
2023/01/11 03:16:20;;;;;;;15.25;2.92;;;;;;;-6.01;69.64;101557.48;1713609;83;21178;-55
2023/01/11 03:19:02;;;;;;;14.13;3.02;;;;;;;-6.00;69.36;101573.42;1714272;83;21144;-55
2023/01/11 03:21:38;;;;;;;10.25;3.17;;;;;;;-6.04;69.20;101581.62;1716473;83;21124;-55
2023/01/11 03:24:34;;;;;;;11.95;2.58;;;;;;;-6.05;68.94;101593.22;1711918;83;21618;-55
2023/01/11 03:27:21;;;;;;;9.18;2.95;;;;;;;-6.07;68.62;101592.81;1711972;83;21116;-55
2023/01/11 03:30:14;;;;;;;11.50;3.15;;;;;;;-6.09;68.63;101596.48;1753662;80;21146;-57
2023/01/11 03:32:51;;;;;;;19.12;5.15;;;;;;;-6.08;68.51;101600.41;1694421;81;21129;-57
2023/01/11 03:35:37;;;;;;;19.92;3.47;;;;;;;-6.13;68.35;101599.73;1772716;80;21581;-56
2023/01/11 03:38:11;;;;;;;13.22;3.20;;;;;;;-6.16;68.49;101597.20;1766912;81;21115;-54
2023/01/11 03:40:45;;;;;;;11.90;3.55;;;;;;;-6.18;68.46;101599.52;1749349;81;21166;-55
2023/01/11 03:43:13;;;;;;;8.85;3.30;;;;;;;-6.18;68.67;101604.39;1768514;80;21159;-54
2023/01/11 03:45:59;;;;;;;14.65;3.52;;;;;;;-6.17;68.59;101608.80;1773655;81;21637;-55
2023/01/11 03:49:01;;;;;;;12.00;3.05;;;;;;;-6.20;68.70;101610.25;1770072;79;21158;-56
2023/01/11 03:51:33;;;;;;;13.88;3.30;;;;;;;-6.20;68.43;101607.58;1767388;80;21224;-57
2023/01/11 03:54:05;;;;;;;14.07;3.85;;;;;;;-6.23;68.30;101614.84;1741784;80;21154;-56
2023/01/11 03:57:08;;;;;;;9.25;3.02;;;;;;;-6.25;68.07;101617.56;1732244;80;21141;-57
2023/01/11 03:59:38;;;;;;;17.32;3.08;;;;;;;-6.28;68.03;101609.69;1769951;80;21154;-57
2023/01/11 04:02:20;;;;;;;14.33;3.33;;;;;;;-6.32;67.85;101613.41;1747637;80;21095;-57
2023/01/11 04:04:50;;;;;;;14.83;4.00;;;;;;;-6.36;67.74;101612.25;1764122;80;21142;-59
2023/01/11 04:07:19;;;;;;;10.55;3.33;;;;;;;-6.37;67.43;101606.05;1768388;80;21198;-56
2023/01/11 04:09:48;;;;;;;9.18;3.05;;;;;;;-6.37;67.61;101610.05;1770584;80;21154;-55
2023/01/11 04:12:18;;;;;;;11.00;3.30;;;;;;;-6.35;67.52;101611.33;1770147;80;21122;-55
2023/01/11 04:14:47;;;;;;;13.30;3.45;;;;;;;-6.35;67.40;101620.20;1767580;80;21191;-55
2023/01/11 04:17:15;;;;;;;12.45;3.95;;;;;;;-6.35;67.42;101630.86;1773847;80;21555;-56
2023/01/11 04:19:46;;;;;;;8.85;3.15;;;;;;;-6.34;67.36;101625.06;1773563;81;21139;-57
2023/01/11 04:22:15;;;;;;;16.42;3.87;;;;;;;-6.37;67.31;101615.38;1773295;81;21155;-55
2023/01/11 04:24:45;;;;;;;12.63;3.65;;;;;;;-6.37;67.48;101616.72;1773072;80;21170;-55
2023/01/11 04:27:14;;;;;;;17.75;3.52;;;;;;;-6.35;67.42;101618.86;1769061;80;21551;-55
2023/01/11 04:29:43;;;;;;;13.40;3.55;;;;;;;-6.33;67.46;101610.80;1765835;80;21159;-56
2023/01/11 04:32:18;;;;;;;12.98;3.55;;;;;;;-6.29;67.44;101614.62;1768365;80;21107;-54
2023/01/11 04:34:47;;;;;;;10.15;3.52;;;;;;;-6.31;67.44;101625.81;1770345;80;21230;-56
2023/01/11 04:37:15;;;;;;;12.68;3.85;;;;;;;-6.30;67.50;101626.22;1769896;80;21147;-56
2023/01/11 04:39:45;;;;;;;13.83;3.85;;;;;;;-6.27;67.61;101642.09;1770969;80;21146;-56
2023/01/11 04:42:19;;;;;;;11.18;4.03;;;;;;;-6.27;67.50;101641.23;1769627;80;21508;-56
2023/01/11 04:44:51;;;;;;;10.38;3.67;;;;;;;-6.27;67.52;101643.42;1773894;80;21171;-56
2023/01/11 04:47:21;;;;;;;10.03;4.00;;;;;;;-6.27;67.61;101646.09;1768894;80;21636;-54
2023/01/11 04:49:50;;;;;;;10.48;3.47;;;;;;;-6.24;67.56;101648.64;1772877;80;21142;-57
2023/01/11 04:52:20;;;;;;;14.98;4.00;;;;;;;-6.24;67.56;101641.98;1773760;80;21151;-56
2023/01/11 04:54:51;;;;;;;12.07;4.03;;;;;;;-6.21;67.66;101647.66;1772843;80;21616;-56
2023/01/11 04:57:20;;;;;;;9.30;3.42;;;;;;;-6.26;67.30;101653.17;1769406;80;21189;-55
2023/01/11 04:59:50;;;;;;;13.05;3.85;;;;;;;-6.30;67.27;101654.22;1773823;81;21572;-55
2023/01/11 05:02:20;;;;;;;10.32;3.10;;;;;;;-6.33;67.25;101653.00;1766989;80;21611;-56
2023/01/11 05:04:49;;;;;;;12.13;3.40;;;;;;;-6.38;67.38;101653.64;1768458;80;21131;-56
2023/01/11 05:07:17;;;;;;;7.70;3.20;;;;;;;-6.40;67.49;101667.03;1768305;80;21166;-56
2023/01/11 05:09:47;;;;;;;9.58;3.45;;;;;;;-6.39;67.43;101663.91;1774402;80;21118;-56
2023/01/11 05:12:15;;;;;;;9.98;3.62;;;;;;;-6.42;67.77;101641.36;1770154;80;21138;-57
2023/01/11 05:14:44;;;;;;;16.15;3.60;;;;;;;-6.44;67.86;101649.88;1773947;81;21123;-58
2023/01/11 05:17:14;;;;;;;9.73;3.40;;;;;;;-6.48;67.95;101653.59;1769775;80;21123;-58
2023/01/11 05:19:44;;;;;;;9.48;3.77;;;;;;;-6.49;68.10;101649.19;1744401;81;21130;-56
2023/01/11 05:22:13;;;;;;;10.82;3.90;;;;;;;-6.48;68.26;101656.26;1771016;80;21142;-56
2023/01/11 05:24:42;;;;;;;10.58;3.60;;;;;;;-6.51;68.39;101657.67;1773107;80;21146;-55
2023/01/11 05:27:11;;;;;;;9.95;3.90;;;;;;;-6.51;68.23;101649.68;1773210;81;22096;-57
2023/01/11 05:29:40;;;;;;;11.38;4.15;;;;;;;-6.48;68.39;101652.26;1768498;80;21186;-55
2023/01/11 05:32:12;;;;;;;11.38;3.75;;;;;;;-6.45;68.36;101654.81;1771576;80;21119;-57
2023/01/11 05:34:42;;;;;;;11.88;4.10;;;;;;;-6.45;68.37;101663.67;1654471;85;21225;-57
2023/01/11 05:37:11;;;;;;;10.58;3.77;;;;;;;-6.46;68.31;101673.06;1666824;85;21176;-56
2023/01/11 05:39:42;;;;;;;10.32;3.52;;;;;;;-6.46;68.26;101675.27;1683806;85;21120;-56
2023/01/11 05:42:11;;;;;;;11.05;3.35;;;;;;;-6.46;67.82;101676.60;1684357;85;21780;-56
2023/01/11 05:47:29;;;;;;;13.32;4.05;;;;;;;-6.51;67.55;101680.34;1675292;85;21183;-55
2023/01/11 05:49:58;;;;;;;12.28;3.77;;;;;;;-6.54;67.54;101679.98;1687023;85;21625;-58
2023/01/11 05:52:31;;;;;;;8.88;3.20;;;;;;;-6.61;67.69;101682.94;1717877;80;21192;-55
2023/01/11 05:55:00;;;;;;;9.35;3.85;;;;;;;-6.66;67.95;101682.25;1768080;80;21126;-57
2023/01/11 05:57:29;;;;;;;12.20;3.98;;;;;;;-6.69;67.84;101679.69;1776249;80;21155;-57
2023/01/11 05:59:58;;;;;;;9.78;3.40;;;;;;;-6.72;67.63;101683.34;1768744;79;21150;-55
2023/01/11 06:02:27;;;;;;;8.00;3.50;;;;;;;-6.73;67.43;101678.47;1758353;80;21143;-54
2023/01/11 06:04:56;;;;;;;9.80;4.00;;;;;;;-6.75;67.03;101682.99;1773003;80;21091;-56
2023/01/11 06:07:24;;;;;;;15.60;4.20;;;;;;;-6.75;67.18;101678.99;1769200;80;21143;-54
2023/01/11 06:09:56;;;;;;;11.57;4.53;;;;;;;-6.74;66.97;101676.73;1736993;82;21206;-56
2023/01/11 06:12:25;;;;;;;19.00;5.85;;;;;;;-6.71;66.91;101694.41;1676833;85;21587;-55
2023/01/11 06:14:55;;;;;;;16.85;5.10;;;;;;;-6.68;67.21;101700.09;1669819;85;21132;-54
2023/01/11 06:17:24;;;;;;;21.00;5.80;;;;;;;-6.65;67.05;101698.64;1659648;86;21199;-55
2023/01/11 06:19:53;;;;;;;13.68;5.15;;;;;;;-6.64;66.98;101701.25;1662952;85;21175;-55
2023/01/11 06:22:23;;;;;;;17.67;4.70;;;;;;;-6.61;67.12;101692.27;1673586;85;21618;-55
2023/01/11 06:24:54;;;;;;;15.15;4.70;;;;;;;-6.61;67.03;101692.27;1676636;85;21139;-55
2023/01/11 06:27:24;;;;;;;18.95;4.08;;;;;;;-6.65;66.76;101687.52;1684797;83;21187;-55
2023/01/11 06:29:53;;;;;;;9.25;4.22;;;;;;;-6.65;67.06;101690.64;1764312;80;21080;-55
2023/01/11 06:32:22;;;;;;;13.80;3.87;;;;;;;-6.64;66.72;101685.72;1769510;80;21547;-57
2023/01/11 06:34:53;;;;;;;11.35;4.05;;;;;;;-6.66;66.49;101672.92;1768810;80;21161;-53
2023/01/11 06:37:22;;;;;;;14.03;4.37;;;;;;;-6.66;66.45;101684.91;1772961;80;21098;-55
2023/01/11 06:39:51;;;;;;;10.80;4.35;;;;;;;-6.67;66.64;101685.84;1771849;80;22101;-54
2023/01/11 10:31:32;;;;;;;11.30;4.17;;;;;;;-6.49;67.70;101612.73;1807672;75;25397;-69
2023/01/11 10:34:29;;;;;;;14.70;5.75;;;;;;;-6.48;67.91;101617.61;1775979;80;21079;-66
2023/01/11 10:42:26;;;;;;;17.17;5.12;;;;;;;-6.28;67.73;101623.02;1716658;83;21134;-68
2023/01/11 10:45:06;;;;;;;15.63;6.05;;;;;;;-6.22;67.23;101612.11;1725839;83;21131;-67
2023/01/11 10:47:40;;;;;;;19.35;4.87;;;;;;;-6.19;66.78;101598.65;1723892;83;21184;-69
2023/01/11 10:51:03;;;;;;;15.78;5.25;;;;;;;-6.17;66.55;101604.80;1746261;81;21643;-69
2023/01/11 10:54:05;;;;;;;11.95;4.97;;;;;;;-6.13;66.22;101597.53;1675839;85;21556;-70
2023/01/11 10:57:18;;;;;;;13.60;4.67;;;;;;;-6.05;66.48;101593.22;1711488;83;21591;-68
2023/01/11 11:00:12;;;;;;;13.78;5.05;;;;;;;-5.98;66.37;101582.23;1725375;83;21171;-69
2023/01/11 11:03:02;;;;;;;19.75;4.87;;;;;;;-5.91;66.12;101593.05;1729762;81;21734;-69
2023/01/11 11:06:17;;;;;;;18.45;4.87;;;;;;;-5.88;65.95;101601.36;1729327;81;21625;-68
2023/01/11 11:09:05;;;;;;;19.27;5.47;;;;;;;-5.85;65.71;101596.80;1773565;80;21155;-70
2023/01/11 11:11:51;;;;;;;10.72;4.22;;;;;;;-5.80;65.83;101588.13;1742353;81;21155;-68
2023/01/11 11:14:27;;;;;;;12.80;4.83;;;;;;;-5.76;66.14;101600.41;1726685;82;21159;-68
2023/01/11 11:17:19;;;;;;;13.95;4.97;;;;;;;-5.69;65.93;101600.16;1726992;83;21531;-66
2023/01/11 11:19:58;;;;;;;23.18;6.62;;;;;;;-5.61;66.06;101606.91;1727199;82;21606;-68
2023/01/11 11:22:39;;;;;;;13.20;5.25;;;;;;;-5.53;66.17;101598.10;1698521;83;21172;-69
2023/01/11 11:25:36;;;;;;;23.32;7.78;;;;;;;-5.48;65.94;101593.43;1697839;84;21187;-69
2023/01/11 11:28:26;;;;;;;31.87;10.75;;;;;;;-5.40;65.69;101597.57;1698463;84;21131;-68
2023/01/11 11:30:59;;;;;;;42.05;11.65;;;;;;;-5.39;65.46;101599.31;1698299;84;21238;-68
2023/01/11 11:33:43;;;;;;;18.57;6.70;;;;;;;-5.36;65.51;101597.84;1701435;84;21130;-70
2023/01/11 11:36:20;;;;;;;14.90;6.83;;;;;;;-5.35;65.23;101597.77;1702628;84;21273;-70
2023/01/11 11:39:33;;;;;;;13.65;5.65;;;;;;;-5.34;64.71;101589.29;1716434;83;21166;-68
2023/01/11 11:42:20;;;;;;;19.90;6.78;;;;;;;-5.37;64.79;101576.94;1754584;81;21195;-68
2023/01/11 11:45:14;;;;;;;15.08;5.50;;;;;;;-5.34;65.12;101577.27;1754437;81;21542;-68
2023/01/11 11:48:02;;;;;;;17.73;5.05;;;;;;;-5.31;65.25;101593.16;1736896;82;21098;-69
2023/01/11 11:50:32;;;;;;;17.05;5.95;;;;;;;-5.31;65.22;101587.81;1754856;82;21162;-70
2023/01/11 11:53:04;;;;;;;15.65;5.12;;;;;;;-5.23;65.25;101591.02;1752330;81;21581;-68
2023/01/11 11:55:34;;;;;;;13.90;5.62;;;;;;;-5.23;65.25;101591.02;1754564;82;21432;-70
2023/01/11 11:58:07;;;;;;;13.03;5.53;;;;;;;-5.24;64.99;101594.62;1720652;82;21591;-68
2023/01/11 12:00:46;;;;;;;14.23;5.80;;;;;;;-5.27;64.92;101600.11;1724554;83;21123;-68
2023/01/11 12:03:19;;;;;;;13.55;5.00;;;;;;;-5.27;64.92;101600.11;1723966;83;21204;-66
2023/01/11 12:05:59;;;;;;;13.70;4.62;;;;;;;-5.22;64.92;101598.09;1724477;82;21104;-67
2023/01/11 12:08:31;;;;;;;16.40;5.95;;;;;;;-5.20;64.70;101602.94;1724448;81;21181;-66
2023/01/11 12:11:06;;;;;;;13.32;5.08;;;;;;;-5.20;64.70;101602.94;1724672;83;21176;-69
2023/01/11 12:13:37;;;;;;;15.85;5.60;;;;;;;-5.22;64.71;101590.08;1724491;82;21105;-69
2023/01/11 12:16:19;;;;;;;14.40;4.83;;;;;;;-5.22;64.97;101592.76;1724414;82;21167;-67
2023/01/11 12:18:48;;;;;;;19.10;5.50;;;;;;;-5.22;64.79;101586.94;1724446;81;21595;-68
2023/01/11 12:21:26;;;;;;;14.70;5.30;;;;;;;-5.22;65.59;101584.74;1724513;82;21524;-67
2023/01/11 12:24:17;;;;;;;13.05;5.50;;;;;;;-5.18;65.63;101579.23;1724758;82;21554;-67
2023/01/11 12:27:08;;;;;;;13.58;5.55;;;;;;;-5.13;65.39;101584.36;1740507;82;21105;-68
2023/01/11 12:30:25;;;;;;;15.93;5.42;;;;;;;-5.11;65.58;101586.50;1720379;82;21584;-67
2023/01/11 12:33:08;;;;;;;14.20;4.95;;;;;;;-5.08;65.48;101595.71;1706091;83;21173;-66
2023/01/11 12:36:11;;;;;;;17.57;7.08;;;;;;;-5.09;65.08;101595.31;1689149;85;21146;-67
2023/01/11 12:38:55;;;;;;;15.53;4.75;;;;;;;-5.13;65.21;101580.36;1688824;85;21206;-67
2023/01/11 12:41:50;;;;;;;13.38;5.20;;;;;;;-5.13;65.21;101580.36;1700785;84;21202;-69
2023/01/11 12:44:40;;;;;;;17.57;5.45;;;;;;;-5.16;65.30;101575.15;1681188;84;21150;-70
2023/01/11 12:47:44;;;;;;;15.13;5.28;;;;;;;-5.13;65.09;101589.70;1698458;84;21169;-69
2023/01/11 12:50:28;;;;;;;23.15;6.17;;;;;;;-5.10;65.28;101586.89;1744480;82;21146;-68
2023/01/11 12:53:33;;;;;;;20.40;5.25;;;;;;;-5.09;65.28;101586.42;1744383;82;21635;-67
2023/01/11 12:56:50;;;;;;;30.15;7.83;;;;;;;-5.09;65.21;101589.97;1744197;82;21197;-69
2023/01/11 12:59:36;;;;;;;13.45;4.95;;;;;;;-5.11;64.73;101585.16;1744413;82;21761;-69
2023/01/11 13:02:48;;;;;;;20.08;5.55;;;;;;;-5.13;64.96;101588.38;1744466;82;21162;-70
2023/01/11 13:06:30;;;;;;;17.42;5.55;;;;;;;-5.16;65.18;101589.84;1744321;82;21208;-68
2023/01/11 13:09:32;;;;;;;18.27;5.05;;;;;;;-5.19;64.98;101580.62;1744475;82;21181;-69
2023/01/11 13:12:22;;;;;;;20.08;5.92;;;;;;;-5.19;64.92;101583.30;1744566;82;21690;-69
2023/01/11 19:26:53;;;;;;;22.27;8.03;;;;;;;-6.11;71.13;101505.84;1848284;77;22171;-61
2023/01/11 19:29:23;;;;;;;20.55;7.90;;;;;;;-6.18;70.90;101499.50;1753180;82;21601;-60
2023/01/11 19:31:54;;;;;;;19.07;7.05;;;;;;;-6.22;70.91;101493.89;1784911;80;21119;-59
2023/01/11 19:34:23;;;;;;;18.10;7.40;;;;;;;-6.26;71.07;101490.95;1754131;82;21119;-59
2023/01/11 19:36:53;;;;;;;22.37;7.25;;;;;;;-6.27;71.09;101492.75;1754045;82;21636;-60
2023/01/11 19:39:22;;;;;;;15.83;6.75;;;;;;;-6.26;71.23;101488.28;1754179;82;21122;-60
2023/01/11 19:41:55;;;;;;;20.43;6.55;;;;;;;-6.26;71.16;101490.95;1754113;82;21123;-60
2023/01/11 19:44:28;;;;;;;17.42;6.72;;;;;;;-6.31;71.26;101495.14;1754067;82;21123;-60
2023/01/11 19:46:57;;;;;;;14.87;6.42;;;;;;;-6.28;71.28;101497.69;1754092;82;21160;-59
2023/01/11 19:49:30;;;;;;;20.65;6.37;;;;;;;-6.28;71.30;101503.48;1751835;82;21667;-59
2023/01/11 19:52:00;;;;;;;19.07;6.10;;;;;;;-6.27;71.42;101495.89;1754060;81;21190;-62
2023/01/11 19:54:31;;;;;;;18.75;6.85;;;;;;;-6.24;71.43;101507.29;1754215;82;21123;-61
2023/01/11 19:56:59;;;;;;;20.43;6.67;;;;;;;-6.21;71.47;101511.16;1754176;82;21150;-62
2023/01/11 19:59:29;;;;;;;18.55;6.45;;;;;;;-6.17;71.46;101507.91;1754426;81;21217;-61
2023/01/11 20:02:04;;;;;;;20.25;7.17;;;;;;;-6.16;71.46;101499.84;1754404;82;21154;-60
2023/01/11 20:04:35;;;;;;;18.67;6.62;;;;;;;-6.14;71.55;101508.64;1754371;82;21122;-60
2023/01/11 20:07:05;;;;;;;20.60;6.80;;;;;;;-6.10;71.67;101501.37;1754170;82;21166;-60
2023/01/11 20:09:38;;;;;;;18.57;6.30;;;;;;;-6.08;71.64;101496.38;1753870;82;21126;-61
2023/01/11 20:12:09;;;;;;;17.87;6.55;;;;;;;-6.04;71.66;101490.91;1754142;82;21142;-60
2023/01/11 20:14:39;;;;;;;20.45;6.20;;;;;;;-6.02;71.74;101485.05;1753956;82;21607;-61
2023/01/11 20:17:08;;;;;;;18.17;6.40;;;;;;;-5.99;71.82;101492.92;1754002;81;21130;-60
2023/01/11 20:19:37;;;;;;;15.40;6.12;;;;;;;-5.99;71.83;101487.58;1754018;82;21608;-61
2023/01/11 20:22:06;;;;;;;20.55;5.72;;;;;;;-6.00;71.87;101486.72;1753820;81;21166;-61
2023/01/11 20:24:36;;;;;;;18.27;6.23;;;;;;;-6.00;71.94;101475.17;1754033;82;21130;-61
2023/01/11 20:27:05;;;;;;;19.10;6.50;;;;;;;-5.96;72.11;101471.44;1746476;82;21186;-60
2023/01/11 20:29:34;;;;;;;16.27;6.25;;;;;;;-5.93;72.18;101476.17;1815386;79;21102;-61
2023/01/11 20:32:05;;;;;;;23.95;6.62;;;;;;;-5.90;72.31;101471.17;1746243;82;21585;-60
2023/01/11 20:34:37;;;;;;;16.40;6.40;;;;;;;-5.87;72.37;101469.20;1811171;79;21102;-60
2023/01/11 20:37:07;;;;;;;15.83;6.15;;;;;;;-5.84;72.36;101471.77;1746056;82;21554;-60
2023/01/11 20:39:36;;;;;;;17.45;6.28;;;;;;;-5.83;72.30;101470.84;1814908;79;21522;-61
2023/01/11 20:42:07;;;;;;;20.68;6.60;;;;;;;-5.81;72.24;101473.44;1814769;79;21647;-60
2023/01/11 20:44:37;;;;;;;18.17;6.62;;;;;;;-5.80;72.09;101463.16;1745751;82;21162;-60
2023/01/11 20:47:06;;;;;;;17.50;6.87;;;;;;;-5.84;72.00;101467.77;1814776;79;21597;-61
2023/01/11 20:49:36;;;;;;;18.60;6.83;;;;;;;-5.85;72.02;101464.70;1814837;79;21143;-59
2023/01/11 20:52:05;;;;;;;16.57;6.65;;;;;;;-5.81;72.08;101464.09;1745725;82;21605;-60
2023/01/11 20:54:36;;;;;;;23.98;6.45;;;;;;;-5.80;72.01;101464.03;1814880;79;21120;-62
2023/01/11 20:57:11;;;;;;;17.77;6.08;;;;;;;-5.79;71.99;101466.23;1745417;82;21381;-60
2023/01/11 20:59:36;;;;;;;18.12;6.47;;;;;;;-5.77;71.95;101465.70;1814693;79;21146;-60
2023/01/11 21:02:09;;;;;;;17.55;6.20;;;;;;;-5.78;71.91;101464.83;1745716;82;21167;-61
2023/01/11 21:04:39;;;;;;;18.23;5.90;;;;;;;-5.78;71.94;101467.50;1814926;79;21142;-64
2023/01/11 21:07:08;;;;;;;17.27;6.22;;;;;;;-5.77;71.84;101467.03;1814932;79;21126;-60
2023/01/11 21:09:37;;;;;;;17.30;7.05;;;;;;;-5.77;71.79;101463.89;1716210;82;21566;-60
2023/01/11 21:12:06;;;;;;;13.48;6.08;;;;;;;-5.76;71.84;101466.09;1815173;79;21111;-61
2023/01/11 21:14:40;;;;;;;17.32;6.45;;;;;;;-5.76;71.81;101470.97;1745526;82;21100;-60
2023/01/11 21:17:09;;;;;;;18.12;7.15;;;;;;;-5.77;71.84;101461.23;1783507;79;21122;-60
2023/01/11 21:19:37;;;;;;;21.57;6.28;;;;;;;-5.77;71.78;101461.70;1814977;79;21518;-60
2023/01/11 21:22:06;;;;;;;17.70;5.85;;;;;;;-5.81;71.74;101466.77;1745743;82;21154;-61
2023/01/11 21:24:37;;;;;;;14.53;5.47;;;;;;;-5.82;71.86;101462.36;1814854;79;21150;-60
2023/01/11 21:27:06;;;;;;;19.00;5.70;;;;;;;-5.82;71.90;101463.23;1807722;79;21103;-60
2023/01/11 21:29:35;;;;;;;14.80;5.83;;;;;;;-5.83;71.94;101464.63;1737925;82;21622;-59
2023/01/11 21:32:05;;;;;;;14.50;6.00;;;;;;;-5.86;72.00;101466.94;1806212;79;21119;-60
2023/01/11 21:34:36;;;;;;;16.55;5.75;;;;;;;-5.87;72.11;101463.87;1737797;82;21182;-60
2023/01/11 21:37:05;;;;;;;15.90;5.65;;;;;;;-5.87;72.12;101465.67;1806189;79;21892;-61
2023/01/11 21:39:34;;;;;;;16.37;5.72;;;;;;;-5.88;72.17;101471.47;1737820;82;21174;-60
2023/01/11 21:42:05;;;;;;;16.87;5.70;;;;;;;-5.89;72.18;101472.91;1806341;79;21091;-60
2023/01/11 21:44:35;;;;;;;14.18;5.55;;;;;;;-5.90;72.31;101479.18;1737829;82;21123;-62
2023/01/11 21:47:05;;;;;;;13.53;5.00;;;;;;;-5.90;72.32;101484.52;1806422;79;21159;-61
2023/01/11 21:49:34;;;;;;;13.93;5.58;;;;;;;-5.90;72.41;101479.18;1806091;79;21103;-60
2023/01/11 21:52:03;;;;;;;13.95;6.00;;;;;;;-5.89;72.39;101479.58;1806470;79;21166;-60
2023/01/11 21:54:31;;;;;;;16.00;5.67;;;;;;;-5.89;72.48;101483.58;1737891;82;21547;-61
2023/01/11 21:57:01;;;;;;;17.17;5.35;;;;;;;-5.88;72.44;101477.28;1806234;79;21158;-60
2023/01/11 21:59:34;;;;;;;15.45;5.62;;;;;;;-5.89;72.40;101468.91;1806374;79;21170;-60
2023/01/11 22:02:02;;;;;;;15.15;5.40;;;;;;;-5.89;72.43;101460.91;1737647;82;21159;-61
2023/01/11 22:04:34;;;;;;;16.45;5.40;;;;;;;-5.89;72.47;101464.41;1806439;79;21159;-62
2023/01/11 22:07:04;;;;;;;18.90;5.60;;;;;;;-5.90;72.44;101468.03;1717282;82;21155;-60
2023/01/11 22:09:33;;;;;;;14.35;5.50;;;;;;;-5.90;72.40;101465.84;1806644;79;21606;-60
2023/01/11 22:12:03;;;;;;;20.60;5.50;;;;;;;-5.94;72.34;101465.10;1737891;82;21139;-60
2023/01/11 22:14:34;;;;;;;14.80;5.85;;;;;;;-5.97;72.38;101472.38;1806307;79;21096;-62
2023/01/11 22:17:03;;;;;;;17.77;5.70;;;;;;;-5.99;72.46;101474.24;1737840;82;21095;-60
2023/01/11 22:19:32;;;;;;;16.12;5.70;;;;;;;-5.99;72.47;101468.44;1806462;79;21512;-60